Time;durP1;ratioP1;P1;durP2;ratioP2;P2;SDS_P1;SDS_P2;PMS_P1;PMS_P2;Temp;Humidity;BMP_temperature;BMP_pressure;BME280_temperature;BME280_humidity;BME280_pressure;Samples;Min_cycle;Max_cycle;Signal;HPM_P1;HPM_P2
2022/06/06 00:02:23;;;;;;;10.77;6.95;;;640.60;2432.00;;;;;;5014823;28;20026;-68
2022/06/06 00:04:48;;;;;;;13.80;7.45;;;640.50;2432.00;;;;;;5013145;28;20033;-68
2022/06/06 00:07:14;;;;;;;18.40;7.15;;;640.50;2432.00;;;;;;5014646;28;20129;-68
2022/06/06 00:09:40;;;;;;;13.27;7.38;;;640.60;2432.00;;;;;;5014799;28;20049;-68
2022/06/06 00:12:06;;;;;;;14.52;6.80;;;640.60;2432.00;;;;;;5014417;28;20026;-67
2022/06/06 00:14:32;;;;;;;15.20;7.53;;;640.60;2432.00;;;;;;5014620;28;20030;-69
2022/06/06 00:16:58;;;;;;;17.00;7.95;;;640.70;2432.00;;;;;;5014546;28;20018;-68
2022/06/06 00:19:24;;;;;;;14.15;7.13;;;640.70;2432.00;;;;;;4997042;28;20026;-68
2022/06/06 00:21:51;;;;;;;13.02;7.10;;;640.60;2432.00;;;;;;5014480;28;20116;-68
2022/06/06 00:24:17;;;;;;;14.18;6.95;;;640.50;2432.00;;;;;;5014140;28;20092;-68
2022/06/06 00:26:43;;;;;;;11.95;7.63;;;640.50;2432.00;;;;;;5014081;28;20069;-68
2022/06/06 00:29:14;;;;;;;14.73;7.03;;;640.50;2432.00;;;;;;5014413;28;20022;-68
2022/06/06 00:37:12;;;;;;;11.40;7.97;;;640.50;2432.00;;;;;;5014387;28;20115;-68
2022/06/06 00:39:38;;;;;;;11.45;6.90;;;640.50;2432.00;;;;;;5014257;28;20032;-68
2022/06/06 00:42:31;;;;;;;11.63;6.85;;;640.50;2432.00;;;;;;5014164;28;20396;-68
2022/06/06 00:45:13;;;;;;;11.38;6.93;;;;;;;;;;5013828;28;20084;-68
2022/06/06 00:47:39;;;;;;;;;;;640.40;2432.00;;;;;;5014324;28;20038;-68
2022/06/06 00:50:10;;;;;;;12.00;7.43;;;;;;;;;;5013960;28;19916;-68
2022/06/06 00:52:38;;;;;;;14.23;8.15;;;;;;;;;;5013944;28;20097;-68
2022/06/06 00:55:07;;;;;;;11.63;7.80;;;;;;;;;;5013984;28;20366;-68
2022/06/06 00:57:36;;;;;;;11.52;7.50;;;;;;;;;;5013655;28;20042;-68
2022/06/06 01:00:07;;;;;;;12.10;7.63;;;;;;;;;;5014015;28;20061;-68
2022/06/06 01:02:33;;;;;;;10.27;7.65;;;;;;;;;;5012971;28;20029;-68
2022/06/06 01:05:01;;;;;;;12.70;7.35;;;;;;;;;;5013567;28;20068;-68
2022/06/06 01:07:28;;;;;;;10.90;7.35;;;;;;;;;;5013797;28;20038;-68
2022/06/06 01:09:54;;;;;;;14.77;7.15;;;;;;;;;;5013600;28;20052;-68
2022/06/06 01:12:22;;;;;;;9.98;7.15;;;;;;;;;;5013739;28;20026;-68
2022/06/06 01:14:55;;;;;;;10.43;7.57;;;;;;;;;;5013787;28;20072;-68
2022/06/06 01:17:33;;;;;;;12.65;7.35;;;;;;;;;;5011575;28;20515;-68
2022/06/06 01:20:08;;;;;;;8.95;6.72;;;;;;;;;;5013528;28;20493;-68
2022/06/06 01:22:53;;;;;;;10.40;7.10;;;;;;;;;;5013538;28;20056;-67
2022/06/06 01:25:34;;;;;;;10.23;7.07;;;;;;;;;;5013103;28;20056;-67
2022/06/06 01:28:20;;;;;;;9.73;6.93;;;;;;;;;;5013307;28;20085;-68
2022/06/06 01:30:54;;;;;;;8.60;6.88;;;640.00;2432.00;;;;;;5013475;28;20108;-68
2022/06/06 01:33:20;;;;;;;10.40;6.88;;;640.00;2432.00;;;;;;5013299;28;20033;-67
2022/06/06 01:35:47;;;;;;;8.75;7.20;;;;;;;;;;5013424;28;20058;-67
2022/06/06 01:38:17;;;;;;;11.38;7.20;;;640.10;2432.00;;;;;;5013213;28;20021;-67
2022/06/06 01:40:47;;;;;;;14.98;7.05;;;;;;;;;;5013211;28;20033;-67
2022/06/06 01:43:19;;;;;;;10.07;7.30;;;640.20;2432.00;;;;;;5013321;28;20033;-67
2022/06/06 01:46:20;;;;;;;12.20;7.63;;;640.10;2432.00;;;;;;5013140;28;20034;-67
2022/06/06 01:48:46;;;;;;;11.38;7.35;;;640.10;2432.00;;;;;;5013211;28;20096;-67
2022/06/06 01:51:23;;;;;;;10.00;7.85;;;640.00;2432.00;;;;;;5013218;28;20034;-67
2022/06/06 01:53:48;;;;;;;12.65;7.32;;;640.00;2432.00;;;;;;5013296;28;20081;-67
2022/06/06 01:56:20;;;;;;;9.73;6.75;;;640.10;2432.00;;;;;;5013007;28;20554;-67
2022/06/06 01:58:46;;;;;;;9.52;7.20;;;640.00;2432.00;;;;;;5011725;28;20022;-67
2022/06/06 02:01:12;;;;;;;9.07;6.97;;;640.00;2432.00;;;;;;5012903;28;20034;-67
2022/06/06 02:03:37;;;;;;;10.93;7.38;;;640.00;2432.00;;;;;;5012942;28;20038;-67
2022/06/06 02:06:04;;;;;;;10.20;7.70;;;615.30;2432.00;;;;;;5012951;28;20081;-67
2022/06/06 02:08:31;;;;;;;11.73;7.55;;;615.30;2432.00;;;;;;5013146;28;20100;-67
2022/06/06 02:10:57;;;;;;;9.00;6.82;;;615.30;2432.00;;;;;;5012885;28;20030;-67
2022/06/06 02:13:23;;;;;;;10.65;7.60;;;615.30;2432.00;;;;;;5012821;28;20029;-67
2022/06/06 02:15:49;;;;;;;10.13;7.55;;;615.30;2432.00;;;;;;5016091;28;20029;-67
2022/06/06 02:18:15;;;;;;;10.23;7.30;;;615.30;2432.00;;;;;;5016635;28;20022;-67
2022/06/06 02:20:40;;;;;;;11.30;7.15;;;615.30;2432.00;;;;;;5016820;28;20053;-67
2022/06/06 02:23:06;;;;;;;11.52;7.60;;;615.30;2432.00;;;;;;5016582;28;20022;-67
2022/06/06 02:25:33;;;;;;;10.80;7.40;;;640.00;2432.00;;;;;;5016436;28;20084;-67
2022/06/06 02:28:01;;;;;;;11.60;7.53;;;;;;;;;;5016762;28;20469;-67
2022/06/06 02:30:28;;;;;;;9.40;7.13;;;;;;;;;;5016601;28;20022;-67
2022/06/06 02:32:55;;;;;;;7.80;7.07;;;;;;;;;;5016457;28;20117;-68
2022/06/06 02:35:22;;;;;;;11.13;7.53;;;;;;;;;;5015165;28;20018;-67
2022/06/06 02:37:50;;;;;;;7.88;6.60;;;;;;;;;;5016607;28;20080;-67
2022/06/06 02:40:18;;;;;;;12.18;7.57;;;;;;;;;;5014742;28;20412;-67
2022/06/06 02:42:45;;;;;;;8.38;6.90;;;;;;;;;;5016516;28;20030;-67
2022/06/06 02:45:12;;;;;;;9.63;6.88;;;;;;;;;;5016551;28;20022;-67
2022/06/06 02:47:39;;;;;;;8.90;7.22;;;;;;;;;;5016348;28;20116;-67
2022/06/06 02:50:08;;;;;;;10.85;6.97;;;;;;;;;;5016133;28;20064;-67
2022/06/06 02:52:35;;;;;;;7.72;6.93;;;;;;;;;;5016095;28;20026;-67
2022/06/06 02:55:01;;;;;;;11.23;7.43;;;;;;;;;;5016215;28;20025;-67
2022/06/06 02:57:28;;;;;;;13.27;7.85;;;;;;;;;;5015951;28;20030;-67
2022/06/06 02:59:56;;;;;;;12.63;7.75;;;;;;;;;;5016027;28;20034;-67
2022/06/06 03:02:22;;;;;;;7.90;7.10;;;;;;;;;;5015840;28;20041;-67
2022/06/06 03:04:49;;;;;;;9.60;7.43;;;;;;;;;;5015953;28;20476;-67
2022/06/06 03:07:15;;;;;;;13.27;6.90;;;;;;;;;;5015781;28;20492;-67
2022/06/06 03:09:50;;;;;;;8.60;7.00;;;;;;;;;;5016059;28;20416;-67
2022/06/06 03:12:19;;;;;;;10.15;8.20;;;;;;;;;;5015838;28;20535;-67
2022/06/06 03:15:20;;;;;;;13.48;7.20;;;;;;;;;;5015471;28;20026;-67
2022/06/06 03:20:49;;;;;;;14.90;7.35;;;;;;;;;;4936160;29;20100;-67
2022/06/06 03:23:27;;;;;;;9.60;7.15;;;;;;;;;;4935437;29;20031;-67
2022/06/06 03:25:58;;;;;;;8.32;7.03;;;;;;;;;;4934889;29;20040;-67
2022/06/06 03:28:42;;;;;;;10.15;7.00;;;;;;;;;;4919973;29;20035;-67
2022/06/06 03:31:08;;;;;;;7.95;7.15;;;;;;;;;;4935936;29;20462;-67
2022/06/06 03:33:58;;;;;;;9.50;6.88;;;;;;;;;;4935686;29;20468;-67
2022/06/06 03:36:47;;;;;;;11.68;7.10;;;;;;;;;;4935692;29;20028;-67
2022/06/06 03:39:18;;;;;;;11.18;6.60;;;;;;;;;;4935747;29;20050;-67
2022/06/06 03:41:47;;;;;;;12.15;7.47;;;;;;;;;;4935842;29;20028;-67
2022/06/06 03:44:13;;;;;;;10.23;6.57;;;;;;;;;;4935554;29;20035;-67
2022/06/06 03:46:40;;;;;;;9.27;7.10;;;;;;;;;;4935630;29;20043;-67
2022/06/06 03:49:17;;;;;;;8.68;7.43;;;;;;;;;;4935574;29;20028;-67
2022/06/06 03:52:03;;;;;;;9.30;7.30;;;;;;;;;;4964846;28;20128;-67
2022/06/06 03:54:46;;;;;;;9.63;7.32;;;;;;;;;;4995533;28;20027;-67
2022/06/06 03:57:19;;;;;;;12.98;7.47;;;;;;;;;;4995526;28;20030;-67
2022/06/06 03:59:48;;;;;;;7.97;7.03;;;;;;;;;;4995318;28;20026;-68
2022/06/06 04:02:17;;;;;;;13.52;7.43;;;;;;;;;;4995448;28;20370;-68
2022/06/06 04:04:43;;;;;;;11.00;6.65;;;;;;;;;;4995202;28;20038;-67
2022/06/06 04:07:09;;;;;;;12.00;7.05;;;;;;;;;;4995156;28;20366;-68
2022/06/06 04:09:35;;;;;;;16.38;7.75;;;;;;;;;;4994951;28;20109;-66
2022/06/06 04:12:20;;;;;;;10.27;6.68;;;;;;;;;;4995481;28;20026;-67
2022/06/06 04:14:49;;;;;;;7.70;6.88;;;;;;;;;;4995039;28;20380;-67
2022/06/06 04:17:15;;;;;;;10.50;7.07;;;;;;;;;;4995132;28;20116;-67
2022/06/06 04:19:41;;;;;;;8.95;6.80;;;;;;;;;;4994991;28;20026;-67
2022/06/06 04:22:20;;;;;;;8.65;7.40;;;615.30;2432.00;;;;;;4994762;28;20030;-67
2022/06/06 04:25:17;;;;;;;9.25;7.10;;;615.30;2432.00;;;;;;5007338;28;20041;-67
2022/06/06 04:27:59;;;;;;;10.35;7.13;;;615.30;2432.00;;;;;;5014401;28;20045;-67
2022/06/06 04:30:53;;;;;;;10.00;6.55;;;640.00;2432.00;;;;;;5014285;28;20025;-67
2022/06/06 04:33:25;;;;;;;16.48;7.00;;;615.30;2432.00;;;;;;5014304;28;20030;-67
2022/06/06 04:36:08;;;;;;;11.80;6.75;;;615.30;2432.00;;;;;;5014358;28;20033;-67
2022/06/06 04:38:57;;;;;;;16.88;7.85;;;615.30;2432.00;;;;;;5014220;28;20049;-68
2022/06/06 04:41:28;;;;;;;8.80;6.45;;;640.00;2432.00;;;;;;5014075;28;20037;-67
2022/06/06 04:44:19;;;;;;;10.13;6.60;;;640.00;2432.00;;;;;;5014228;28;20022;-68
2022/06/06 04:46:50;;;;;;;17.42;13.88;;;;;;;;;;5013858;28;20037;-68
2022/06/06 04:49:16;;;;;;;22.60;15.70;;;;;;;;;;5013518;28;20030;-68
2022/06/06 04:51:43;;;;;;;13.18;9.15;;;;;;;;;;5013716;28;20034;-68
2022/06/06 04:54:13;;;;;;;12.43;9.85;;;;;;;;;;5013865;28;20116;-68
2022/06/06 04:56:39;;;;;;;11.73;8.55;;;;;;;;;;5013885;28;20076;-67
2022/06/06 04:59:09;;;;;;;14.77;9.13;;;;;;;;;;5013824;28;20049;-67
2022/06/06 05:01:35;;;;;;;15.10;8.00;;;;;;;;;;5013802;28;20056;-67
2022/06/06 05:04:02;;;;;;;11.35;9.07;;;;;;;;;;5013897;28;20397;-67
2022/06/06 05:06:57;;;;;;;14.15;8.68;;;;;;;;;;5013632;28;20119;-67
2022/06/06 05:09:49;;;;;;;13.55;7.70;;;;;;;;;;4996822;28;20111;-67
2022/06/06 05:12:34;;;;;;;9.85;6.90;;;;;;;;;;4983626;28;20421;-67
2022/06/06 05:15:00;;;;;;;9.25;7.60;;;;;;;;;;5013367;28;20030;-67
2022/06/06 05:17:44;;;;;;;12.40;8.00;;;;;;;;;;5013561;28;20026;-67
2022/06/06 05:20:13;;;;;;;12.85;8.68;;;;;;;;;;5013521;28;20540;-67
2022/06/06 05:22:45;;;;;;;11.10;7.85;;;;;;;;;;5013751;28;20022;-68
2022/06/06 05:25:17;;;;;;;11.88;7.75;;;;;;;;;;5011196;28;20501;-67
2022/06/06 05:28:13;;;;;;;10.45;7.45;;;;;;;;;;5013309;28;20404;-68
2022/06/06 05:30:54;;;;;;;12.13;8.15;;;;;;;;;;4933770;29;20039;-68
2022/06/06 05:33:20;;;;;;;;;;;;;;;;;;4934012;29;20032;-68
2022/06/06 05:36:04;;;;;;;12.82;8.48;;;;;;;;;;4917763;29;19913;-68
2022/06/06 05:38:30;;;;;;;10.20;8.27;;;;;;;;;;4933653;29;20123;-67
2022/06/06 05:41:06;;;;;;;13.95;8.57;;;;;;;;;;4933871;29;20043;-67
2022/06/06 05:43:42;;;;;;;14.52;9.45;;;;;;;;;;4933407;29;20062;-68
2022/06/06 05:46:18;;;;;;;15.23;9.35;;;;;;;;;;4933516;29;20036;-67
2022/06/06 05:48:53;;;;;;;19.45;10.00;;;;;;;;;;4933060;29;20160;-68
2022/06/06 05:51:19;;;;;;;11.32;9.30;;;;;;;;;;4933751;29;20660;-67
2022/06/06 05:53:46;;;;;;;12.52;8.57;;;;;;;;;;4933420;29;20031;-67
2022/06/06 05:56:17;;;;;;;14.02;8.57;;;;;;;;;;4933522;29;20074;-67
2022/06/06 05:58:46;;;;;;;20.77;9.30;;;;;;;;;;4933254;29;20062;-67
2022/06/06 06:01:18;;;;;;;11.75;8.65;;;;;;;;;;4933616;29;20442;-67
2022/06/06 06:04:03;;;;;;;16.95;8.52;;;;;;;;;;4933366;29;20031;-67
2022/06/06 06:06:29;;;;;;;16.52;9.57;;;;;;;;;;4955768;28;20432;-67
2022/06/06 06:08:55;;;;;;;17.27;8.70;;;;;;;;;;5013104;28;20137;-68
2022/06/06 06:11:22;;;;;;;10.25;7.85;;;;;;;;;;5012888;28;20076;-67
2022/06/06 06:13:54;;;;;;;33.60;11.13;;;;;;;;;;5012989;28;20029;-67
2022/06/06 06:16:22;;;;;;;15.52;8.95;;;;;;;;;;5012866;28;20084;-67
2022/06/06 06:18:53;;;;;;;13.27;9.23;;;;;;;;;;5012945;28;20022;-67
2022/06/06 06:21:22;;;;;;;11.50;8.65;;;;;;;;;;5012932;28;20037;-68
2022/06/06 06:24:04;;;;;;;14.80;7.88;;;;;;;;;;5012286;28;20046;-67
2022/06/06 06:26:31;;;;;;;19.63;9.65;;;;;;;;;;5012671;28;20037;-67
2022/06/06 06:29:00;;;;;;;11.98;8.02;;;;;;;;;;5012756;28;20014;-68
2022/06/06 06:31:42;;;;;;;16.83;8.00;;;;;;;;;;5012697;28;20385;-67
2022/06/06 06:34:18;;;;;;;14.18;7.90;;;;;;;;;;5012596;28;20030;-68
2022/06/06 06:36:46;;;;;;;12.10;9.30;;;;;;;;;;5012752;28;20078;-68
2022/06/06 06:39:24;;;;;;;12.40;6.88;;;;;;;;;;5012480;28;20034;-68
2022/06/06 06:42:00;;;;;;;8.52;7.63;;;;;;;;;;5012646;28;20185;-67
2022/06/06 06:44:29;;;;;;;10.43;7.82;;;;;;;;;;5012120;28;20057;-67
2022/06/06 06:46:57;;;;;;;19.77;7.43;;;;;;;;;;5012110;28;20046;-67
2022/06/06 06:49:35;;;;;;;12.95;8.20;;;;;;;;;;5012559;28;20022;-67
2022/06/06 06:52:01;;;;;;;10.00;7.45;;;;;;;;;;5012598;28;20045;-67
2022/06/06 06:54:30;;;;;;;17.60;8.18;;;;;;;;;;5012430;28;20507;-67
2022/06/06 06:56:59;;;;;;;8.07;6.32;;;;;;;;;;5012317;28;20033;-68
2022/06/06 06:59:25;;;;;;;29.25;9.15;;;;;;;;;;5012214;28;20064;-67
2022/06/06 07:08:32;;;;;;;26.50;10.77;;;;;;;;;;5015789;28;20471;-67
2022/06/06 07:08:33;;;;;;;24.95;9.35;;;;;;;;;;5015575;28;20042;-68
2022/06/06 07:10:59;;;;;;;22.95;9.40;;;;;;;;;;5015809;28;20388;-67
2022/06/06 07:13:45;;;;;;;15.15;8.10;;;;;;;;;;5015767;28;20034;-68
2022/06/06 07:16:20;;;;;;;14.43;8.48;;;;;;;;;;5015689;28;20076;-68
2022/06/06 07:18:48;;;;;;;10.38;7.57;;;;;;;;;;5015806;28;20029;-67
2022/06/06 07:21:15;;;;;;;14.82;8.23;;;;;;;;;;5015691;28;20022;-68
2022/06/06 07:23:41;;;;;;;12.63;8.10;;;;;;;;;;5015298;28;20053;-67
2022/06/06 07:26:08;;;;;;;15.77;7.70;;;;;;;;;;5015509;28;20037;-68
2022/06/06 07:28:34;;;;;;;9.98;7.70;;;;;;;;;;5015423;28;20101;-68
2022/06/06 07:31:20;;;;;;;11.68;6.65;;;;;;;;;;5015232;28;20101;-67
2022/06/06 07:33:55;;;;;;;12.27;7.82;;;;;;;;;;5015423;28;20451;-68
2022/06/06 07:36:21;;;;;;;9.68;7.50;;;;;;;;;;5015245;28;20028;-68
2022/06/06 07:38:54;;;;;;;8.40;6.22;;;;;;;;;;5015249;28;20048;-68
2022/06/06 07:41:58;;;;;;;14.35;7.60;;;;;;;;;;5015610;28;20022;-68
2022/06/06 07:44:33;;;;;;;16.75;7.68;;;;;;;;;;4935325;29;20114;-68
2022/06/06 07:47:18;;;;;;;17.48;9.13;;;;;;;;;;4919570;29;20040;-68
2022/06/06 07:50:01;;;;;;;17.42;8.40;;;;;;;;;;4919528;29;20036;-68
2022/06/06 07:52:40;;;;;;;8.45;7.38;;;;;;;;;;4935522;29;20027;-67
2022/06/06 07:55:20;;;;;;;14.70;8.38;;;;;;;;;;4935351;29;20048;-68
2022/06/06 07:57:49;;;;;;;17.95;8.55;;;;;;;;;;4935252;29;20032;-68
2022/06/06 08:00:19;;;;;;;16.85;8.45;;;;;;;;;;4935239;29;20032;-68
2022/06/06 08:02:45;;;;;;;9.88;8.10;;;;;;;;;;4935477;29;20045;-68
2022/06/06 08:05:14;;;;;;;14.85;8.52;;;;;;;;;;4935196;29;20032;-68
2022/06/06 08:07:45;;;;;;;12.40;7.25;;;;;;;;;;4934920;29;20111;-68
2022/06/06 08:10:29;;;;;;;10.15;6.80;;;;;;;;;;4935181;29;20110;-68
2022/06/06 08:12:58;;;;;;;9.98;7.13;;;;;;;;;;4934341;29;20071;-68
2022/06/06 08:15:24;;;;;;;8.68;7.00;;;;;;;;;;4983696;28;20033;-68
2022/06/06 08:18:09;;;;;;;11.38;7.70;;;;;;;;;;5014528;28;20026;-68
2022/06/06 08:21:07;;;;;;;11.85;7.35;;;;;;;;;;5014598;28;20033;-68
2022/06/06 08:23:34;;;;;;;28.30;8.65;;;;;;;;;;4934409;28;20443;-68
2022/06/06 08:26:02;;;;;;;11.65;7.47;;;;;;;;;;4934578;29;20541;-68
2022/06/06 08:28:28;;;;;;;12.82;7.13;;;;;;;;;;4934671;29;20502;-68
2022/06/06 08:30:54;;;;;;;14.55;7.72;;;;;;;;;;4934657;29;20055;-68
2022/06/06 08:33:20;;;;;;;10.60;6.13;;;;;;;;;;4934698;29;20042;-68
2022/06/06 08:36:05;;;;;;;11.00;7.63;;;;;;;;;;4934640;29;20370;-68
2022/06/06 08:39:00;;;;;;;17.73;7.55;;;;;;;;;;4934651;29;20095;-68
2022/06/06 08:41:26;;;;;;;10.63;7.20;;;;;;;;;;4934483;29;20028;-68
2022/06/06 08:44:11;;;;;;;36.03;14.68;;;;;;;;;;4934456;29;20032;-68
2022/06/06 08:46:37;;;;;;;10.27;6.57;;;;;;;;;;4934212;29;20126;-68
2022/06/06 08:49:10;;;;;;;15.27;7.50;;;;;;;;;;4934512;29;20079;-68
2022/06/06 08:51:49;;;;;;;10.93;7.38;;;;;;;;;;4934201;28;20035;-68
2022/06/06 08:54:15;;;;;;;19.38;7.40;;;;;;;;;;4934284;29;20047;-68
2022/06/06 08:56:44;;;;;;;12.32;6.72;;;;;;;;;;4934298;29;20139;-68
2022/06/06 08:59:33;;;;;;;14.30;8.65;;;;;;;;;;4965435;28;20101;-68
2022/06/06 09:02:08;;;;;;;18.58;8.20;;;;;;;;;;4934072;29;20134;-68
2022/06/06 09:04:50;;;;;;;16.48;8.15;;;;;;;;;;4934003;29;20066;-67
2022/06/06 09:07:17;;;;;;;14.48;7.30;;;;;;;;;;4933973;29;20047;-67
2022/06/06 09:09:43;;;;;;;12.85;7.75;;;;;;;;;;4933965;29;20032;-67
2022/06/06 09:12:09;;;;;;;15.05;8.75;;;;;;;;;;4934088;29;20083;-68
2022/06/06 09:14:49;;;;;;;27.65;7.97;;;;;;;;;;4933972;29;20181;-68
2022/06/06 09:17:35;;;;;;;11.95;8.77;;;;;;;;;;4934099;29;20061;-68
2022/06/06 09:20:36;;;;;;;13.60;8.15;;;;;;;;;;4934036;29;20123;-67
2022/06/06 09:23:02;;;;;;;15.30;7.53;;;;;;;;;;4840374;29;20041;-68
2022/06/06 09:25:34;;;;;;;7.93;6.80;;;;;;;;;;4856829;29;20052;-68
2022/06/06 09:28:20;;;;;;;14.43;8.00;;;;;;;;;;4858837;29;20042;-68
2022/06/06 09:31:07;;;;;;;10.50;7.05;;;;;;;;;;4858592;29;20045;-68
2022/06/06 09:33:54;;;;;;;17.10;7.93;;;;;;;;;;4858957;29;20128;-67
2022/06/06 09:36:44;;;;;;;10.85;7.43;;;;;;;;;;4858816;29;20092;-68
2022/06/06 09:39:18;;;;;;;12.10;6.80;;;;;;;;;;4832333;29;20401;-67
2022/06/06 09:42:03;;;;;;;8.40;7.50;;;;;;;;;;4840018;29;20086;-68
2022/06/06 09:44:48;;;;;;;13.43;7.88;;;;;;;;;;4840093;29;20578;-68
2022/06/06 09:47:16;;;;;;;17.00;7.65;;;;;;;;;;4840174;29;20074;-68
2022/06/06 09:49:44;;;;;;;10.80;7.78;;;;;;;;;;4839771;29;20037;-68
2022/06/06 09:52:22;;;;;;;19.33;9.93;;;;;;;;;;4840173;29;20071;-68
2022/06/06 10:00:46;;;;;;;19.27;7.15;;;;;;;;;;4933378;29;20035;-68
2022/06/06 10:03:31;;;;;;;10.18;7.47;;;;;;;;;;4933429;29;20048;-68
2022/06/06 10:05:58;;;;;;;13.77;7.50;;;;;;;;;;4933272;29;20043;-67
2022/06/06 10:08:24;;;;;;;15.05;7.00;;;;;;;;;;4933496;29;20482;-68
2022/06/06 10:10:53;;;;;;;12.90;7.45;;;;;;;;;;4933445;29;20451;-68
2022/06/06 10:13:20;;;;;;;9.93;6.88;;;;;;;;;;4933477;29;20031;-68
2022/06/06 10:15:58;;;;;;;11.63;7.28;;;;;;;;;;4954279;28;20084;-68
2022/06/06 10:18:37;;;;;;;14.20;7.38;;;;;;;;;;4993318;28;20019;-68
2022/06/06 10:21:12;;;;;;;14.52;8.27;;;;;;;;;;4992964;28;20121;-68
2022/06/06 10:23:43;;;;;;;17.83;9.07;;;;;;;;;;4996423;28;20111;-68
2022/06/06 10:26:20;;;;;;;18.17;8.13;;;;;;;;;;5012485;28;20038;-68
2022/06/06 10:29:12;;;;;;;11.85;6.45;;;;;;;;;;5012431;28;20118;-68
2022/06/06 10:31:47;;;;;;;15.18;7.05;;;;;;;;;;5008899;28;20034;-68
2022/06/06 10:34:32;;;;;;;17.75;7.63;;;;;;;;;;5012685;28;20030;-68
2022/06/06 10:36:58;;;;;;;14.65;7.03;;;;;;;;;;5016082;28;20392;-68
2022/06/06 10:39:32;;;;;;;12.45;6.57;;;;;;;;;;5016316;28;20113;-68
2022/06/06 10:42:09;;;;;;;10.00;6.75;;;;;;;;;;5016585;28;20100;-68
2022/06/06 10:44:35;;;;;;;23.45;8.07;;;;;;;;;;5016547;28;20021;-68
2022/06/06 10:47:02;;;;;;;9.52;8.30;;;;;;;;;;5016216;28;20030;-68
2022/06/06 10:49:37;;;;;;;10.23;6.13;;;;;;;;;;5016147;28;20477;-68
2022/06/06 10:52:06;;;;;;;7.05;5.68;;;;;;;;;;5016054;28;20508;-68
2022/06/06 10:54:44;;;;;;;8.77;5.70;;;;;;;;;;5016196;28;20029;-68
2022/06/06 10:57:13;;;;;;;14.25;6.50;;;;;;;;;;5015925;28;20034;-68
2022/06/06 10:59:52;;;;;;;13.88;7.63;;;;;;;;;;5016123;28;20030;-68
2022/06/06 11:02:38;;;;;;;28.25;7.22;;;;;;;;;;5015815;28;20034;-68
2022/06/06 11:05:04;;;;;;;9.98;5.97;;;;;;;;;;5015802;28;20018;-68
2022/06/06 11:07:48;;;;;;;10.93;6.35;;;;;;;;;;5015790;28;20124;-68
2022/06/06 11:10:30;;;;;;;18.27;6.07;;;;;;;;;;5015696;28;20500;-68
2022/06/06 11:12:57;;;;;;;9.57;6.65;;;;;;;;;;5015888;28;20377;-68
2022/06/06 11:15:32;;;;;;;24.40;7.78;;;;;;;;;;5015844;28;20080;-68
2022/06/06 11:18:07;;;;;;;15.60;7.30;;;;;;;;;;5015396;28;20021;-68
2022/06/06 11:20:52;;;;;;;8.93;6.88;;;;;;;;;;5015690;28;20014;-67
2022/06/06 11:23:18;;;;;;;12.00;7.88;;;;;;;;;;5015365;28;20038;-67
2022/06/06 11:25:53;;;;;;;14.93;7.25;;;;;;;;;;5015675;28;20396;-68
2022/06/06 11:28:35;;;;;;;14.57;7.53;;;;;;;;;;5015716;28;20108;-67
2022/06/06 11:31:13;;;;;;;16.35;8.15;;;;;;;;;;5015358;28;20480;-68
2022/06/06 11:33:48;;;;;;;14.48;8.02;;;;;;;;;;5015449;28;20026;-68
2022/06/06 11:36:33;;;;;;;16.35;8.85;;;;;;;;;;5015282;28;20026;-68
2022/06/06 11:39:19;;;;;;;15.38;7.88;;;;;;;;;;5015189;28;20022;-68
2022/06/06 11:42:05;;;;;;;8.32;6.93;;;;;;;;;;5015153;28;20112;-68
2022/06/06 11:44:34;;;;;;;7.82;6.70;;;;;;;;;;5015071;28;20022;-68
2022/06/06 11:47:18;;;;;;;7.57;6.40;;;;;;;;;;5013979;28;20034;-68
2022/06/06 11:49:56;;;;;;;15.98;7.10;;;;;;;;;;5015096;28;20554;-68
2022/06/06 11:52:39;;;;;;;12.65;6.75;;;;;;;;;;5014965;28;20026;-68
2022/06/06 11:55:24;;;;;;;11.50;6.90;;;;;;;;;;5015160;28;20091;-68
2022/06/06 11:58:17;;;;;;;13.35;7.47;;;;;;;;;;5014632;28;20026;-67
2022/06/06 12:00:46;;;;;;;15.35;7.70;;;;;;;;;;5014538;28;20484;-67
2022/06/06 12:03:18;;;;;;;15.05;7.45;;;;;;;;;;5015060;28;20018;-67
2022/06/06 12:06:03;;;;;;;17.27;7.60;;;;;;;;;;5014479;28;20022;-68
2022/06/06 12:09:01;;;;;;;13.40;6.63;;;;;;;;;;5014883;28;20034;-68
2022/06/06 12:11:59;;;;;;;15.52;6.07;;;;;;;;;;4934990;29;20047;-67
2022/06/06 12:14:28;;;;;;;12.38;6.13;;;;;;;;;;4935059;28;20040;-68
2022/06/06 12:17:01;;;;;;;21.00;7.90;;;;;;;;;;4918721;29;20075;-67
2022/06/06 12:19:45;;;;;;;18.52;7.28;;;;;;;;;;4934852;29;20032;-67
2022/06/06 12:22:29;;;;;;;8.10;5.93;;;;;;;;;;4934653;29;20126;-67
2022/06/06 12:25:01;;;;;;;11.98;5.88;;;;;;;;;;4934326;29;20131;-67
2022/06/06 12:28:06;;;;;;;6.15;5.30;;;717.10;2150.40;;;;;;4934583;29;20110;-68
2022/06/06 12:31:07;;;;;;;14.27;5.47;;;717.00;2150.40;;;;;;4934884;29;20482;-68
2022/06/06 12:34:04;;;;;;;8.52;5.63;;;717.00;2150.40;;;;;;4933810;29;20040;-68
2022/06/06 12:36:54;;;;;;;15.73;5.72;;;716.90;2150.40;;;;;;4934541;29;20047;-68
2022/06/06 12:39:32;;;;;;;11.70;5.80;;;717.10;2150.40;;;;;;4934333;29;20487;-68
2022/06/06 12:42:12;;;;;;;13.35;6.18;;;716.90;2150.40;;;;;;4918402;29;20051;-68
2022/06/06 12:44:56;;;;;;;16.35;6.32;;;;;;;;;;4934415;29;20034;-67
2022/06/06 12:47:30;;;;;;;10.23;5.55;;;;;;;;;;4972272;28;20073;-67
2022/06/06 12:50:03;;;;;;;10.43;6.25;;;;;;;;;;4994179;28;20046;-68
2022/06/06 12:52:49;;;;;;;11.27;5.68;;;;;;;;;;4993897;28;20038;-68
2022/06/06 12:58:07;;;;;;;9.23;4.90;;;;;;;;;;4993993;28;20109;-68
2022/06/06 13:03:37;;;;;;;14.63;5.78;;;;;;;;;;4994401;28;20449;-67
2022/06/06 13:06:07;;;;;;;12.80;5.55;;;;;;;;;;4993853;28;20473;-68
2022/06/06 13:08:51;;;;;;;21.27;6.70;;;;;;;;;;4993884;28;20030;-67
2022/06/06 13:11:20;;;;;;;19.20;5.72;;;;;;;;;;4993863;28;20018;-68
2022/06/06 13:14:13;;;;;;;13.10;5.50;;;;;;;;;;4993729;28;20118;-68
2022/06/06 13:16:58;;;;;;;17.70;6.28;;;;;;;;;;4993805;28;20023;-67
2022/06/06 13:19:33;;;;;;;15.45;5.28;;;;;;;;;;4993842;28;20025;-68
2022/06/06 13:22:22;;;;;;;6.30;4.15;;;;;;;;;;4993695;28;20613;-67
2022/06/06 13:25:07;;;;;;;12.77;5.40;;;;;;;;;;4946126;29;20531;-67
2022/06/06 13:27:35;;;;;;;17.58;5.45;;;;;;;;;;4952983;29;20055;-68
2022/06/06 13:30:21;;;;;;;19.50;5.10;;;;;;;;;;4952656;29;20480;-68
2022/06/06 13:32:47;;;;;;;25.27;5.90;;;;;;;;;;4936800;29;20086;-68
2022/06/06 13:35:22;;;;;;;15.43;5.53;;;;;;;;;;4952771;28;20102;-67
2022/06/06 13:38:13;;;;;;;10.50;5.50;;;;;;;;;;4952906;28;20027;-68
2022/06/06 13:40:44;;;;;;;37.15;10.93;;;;;;;;;;4952641;28;20031;-67
2022/06/06 13:43:25;;;;;;;18.90;6.82;;;;;;;;;;4952706;29;20028;-68
2022/06/06 13:46:03;;;;;;;13.95;5.55;;;;;;;;;;4952657;29;20031;-68
2022/06/06 13:48:38;;;;;;;12.15;5.05;;;;;;;;;;4952654;29;20050;-68
2022/06/06 13:51:23;;;;;;;12.23;5.82;;;;;;;;;;4952663;29;20028;-67
2022/06/06 13:53:58;;;;;;;17.05;5.60;;;;;;;;;;4952672;29;20035;-68
2022/06/06 13:56:29;;;;;;;34.00;6.03;;;;;;;;;;4952669;29;20049;-68
2022/06/06 13:59:04;;;;;;;13.38;4.82;;;;;;;;;;4952546;29;20457;-68
2022/06/06 14:01:49;;;;;;;30.15;6.40;;;;;;;;;;4975144;28;20038;-68
2022/06/06 14:04:34;;;;;;;10.30;4.78;;;;;;;;;;5013069;28;20436;-68
2022/06/06 14:07:03;;;;;;;20.55;5.40;;;;;;;;;;5012761;28;20595;-68
2022/06/06 14:09:46;;;;;;;8.23;4.05;;;;;;;;;;5011736;28;20045;-68
2022/06/06 14:12:32;;;;;;;6.65;4.22;;;;;;;;;;5016659;28;20087;-68
2022/06/06 14:15:12;;;;;;;4.82;4.32;;;;;;;;;;5016899;28;20025;-68
2022/06/06 14:17:41;;;;;;;7.30;5.13;;;;;;;;;;5017091;28;20033;-68
2022/06/06 14:20:32;;;;;;;11.82;5.03;;;;;;;;;;5016732;28;20108;-67
2022/06/06 14:23:18;;;;;;;10.63;6.13;;;;;;;;;;5016714;28;20033;-67
2022/06/06 14:25:45;;;;;;;15.82;11.18;;;;;;;;;;5017028;28;20515;-68
2022/06/06 14:28:23;;;;;;;8.95;5.20;;;;;;;;;;5016850;28;20042;-68
2022/06/06 14:30:50;;;;;;;7.25;4.38;;;;;;;;;;5016738;28;20026;-68
2022/06/06 14:33:36;;;;;;;12.18;4.57;;;;;;;;;;5016436;28;20026;-67
2022/06/06 14:36:20;;;;;;;7.32;4.25;;;;;;;;;;5016813;28;20222;-67
2022/06/06 14:38:52;;;;;;;4.75;4.25;;;;;;;;;;5016471;28;20028;-67
2022/06/06 14:41:19;;;;;;;5.93;3.83;;;;;;;;;;5016435;28;20112;-67
2022/06/06 14:43:51;;;;;;;6.63;5.05;;;;;;;;;;5016370;28;20044;-67
2022/06/06 14:46:18;;;;;;;8.10;4.95;;;;;;;;;;5016242;28;20057;-68
2022/06/06 14:48:45;;;;;;;7.10;4.15;;;;;;;;;;5016194;28;20103;-67
2022/06/06 14:51:13;;;;;;;9.00;4.10;;;;;;;;;;5016355;28;20373;-67
2022/06/06 14:53:50;;;;;;;25.90;5.93;;;;;;;;;;5016273;28;20480;-68
2022/06/06 14:56:19;;;;;;;6.85;4.00;;;;;;;;;;5016105;28;20061;-68
2022/06/06 14:58:58;;;;;;;16.77;5.00;;;717.30;1996.80;;;;;;5016185;28;20100;-68
2022/06/06 15:01:25;;;;;;;5.82;4.20;;;717.30;2022.40;;;;;;5016043;28;20026;-68
2022/06/06 15:03:54;;;;;;;6.47;4.82;;;717.30;2022.40;;;;;;5016002;28;20080;-68
2022/06/06 15:06:27;;;;;;;29.13;6.78;;;717.30;2022.40;;;;;;5015796;28;20026;-68
2022/06/06 15:09:20;;;;;;;6.75;4.40;;;717.30;2022.40;;;;;;5015722;28;20480;-68
2022/06/06 15:11:46;;;;;;;7.93;4.72;;;;;;;;;;5015853;28;20112;-68
2022/06/06 15:14:14;;;;;;;11.98;5.30;;;;;;;;;;5015782;28;20022;-68